»·PEaware :: GTI457 KSFO-KBFI

GTI457 :: KSFO-KBFI

FLIGHT INFORMATION

Flight Status: Arrived
Operator:
Atlas Air
More flights by this operator :: More flights under this callsign
Pilot: Alan S. (10569)
Aircraft: Unknown
(B748)
More flights by this aircraft type
Origin: KSFO San Francisco Intl
United States
Destination: KBFI Boeing Field/King Co Intl
United States
More flights between these airports :: More routes between these airports
Route: TRUKN2 DEDHD BTG OLM2
File this flight plan on PilotEdge
Remarks:
Altitude:
(Current/Filed)
38,000ft
Speed:
(Current/Filed)
484kts
Departed: 01-Dec-17 09:47 AM
Arrived: 01-Dec-17 11:23 AM
Distance/Time
Traveled:
595nm/1:36
Distance/Time
To Go:
Arrived

Flight Plot

Page will automatically refresh every two minutes.

Flight plan parsing failed; only flown route is shown


Map Options




Map Legend


Flown Route
Filed Route
Departure Airport
Arrival Airport
Navaid (VOR, NDB)
Fix

Horizontal Profiles

Position Reports

Time Latitude Longitude Heading Altitude Ground
Speed
01-Dec-17 08:57 37.636587 -122.388090 60 27ft 0kts
01-Dec-17 08:58 37.636587 -122.388090 60 27ft 0kts
01-Dec-17 08:59 37.636587 -122.388090 60 27ft 0kts
01-Dec-17 09:00 37.636587 -122.388090 60 27ft 0kts
01-Dec-17 09:01 37.636587 -122.388090 60 27ft 0kts
01-Dec-17 09:02 37.636587 -122.388090 60 27ft 0kts
01-Dec-17 09:03 37.636587 -122.388090 60 27ft 0kts
01-Dec-17 09:04 37.636587 -122.388090 60 27ft 0kts
01-Dec-17 09:05 37.636587 -122.388090 60 27ft 0kts
01-Dec-17 09:06 37.636587 -122.388090 60 27ft 0kts
01-Dec-17 09:07 37.636587 -122.388090 60 27ft 0kts
01-Dec-17 09:08 37.636587 -122.388090 60 27ft 0kts
01-Dec-17 09:09 37.636587 -122.388090 60 27ft 0kts
01-Dec-17 09:10 37.636587 -122.388090 60 27ft 0kts
01-Dec-17 09:11 37.636587 -122.388090 60 27ft 0kts
01-Dec-17 09:12 37.636587 -122.388090 60 27ft 0kts
01-Dec-17 09:13 37.636587 -122.388090 60 27ft 0kts
01-Dec-17 09:14 37.636587 -122.388090 60 27ft 0kts
01-Dec-17 09:15 37.636587 -122.388090 60 27ft 0kts
01-Dec-17 09:16 37.636587 -122.388090 60 27ft 0kts
01-Dec-17 09:17 37.636587 -122.388090 60 27ft 0kts
01-Dec-17 09:18 37.636587 -122.388090 60 27ft 0kts
01-Dec-17 09:19 37.636587 -122.388090 60 27ft 0kts
01-Dec-17 09:20 37.636587 -122.388090 60 27ft 0kts
01-Dec-17 09:21 37.636587 -122.388090 60 27ft 0kts
01-Dec-17 09:22 37.636587 -122.388090 60 27ft 0kts
01-Dec-17 09:23 37.636587 -122.388090 60 27ft 0kts
01-Dec-17 09:24 37.636587 -122.388090 60 27ft 0kts
01-Dec-17 09:25 37.636587 -122.388090 60 27ft 0kts
01-Dec-17 09:26 37.636586 -122.388090 60 27ft 0kts
01-Dec-17 09:27 37.636512 -122.388598 106 27ft 2kts
01-Dec-17 09:28 37.636880 -122.389138 151 27ft 2kts
01-Dec-17 09:29 37.637178 -122.389366 147 27ft 0kts
01-Dec-17 09:30 37.637178 -122.389366 147 27ft 0kts
01-Dec-17 09:31 37.637178 -122.389366 147 27ft 0kts
01-Dec-17 09:32 37.637178 -122.389366 147 27ft 0kts
01-Dec-17 09:33 37.637178 -122.389366 147 27ft 0kts
01-Dec-17 09:34 37.637178 -122.389366 147 27ft 0kts
01-Dec-17 09:35 37.637178 -122.389366 147 27ft 0kts
01-Dec-17 09:36 37.637020 -122.389240 147 27ft 3kts
01-Dec-17 09:37 37.635204 -122.388002 198 27ft 7kts
01-Dec-17 09:38 37.634214 -122.389963 247 27ft 6kts
01-Dec-17 09:39 37.632088 -122.391400 190 27ft 13kts
01-Dec-17 09:40 37.629651 -122.391776 135 27ft 9kts
01-Dec-17 09:41 37.628193 -122.388368 118 27ft 12kts
01-Dec-17 09:42 37.626533 -122.384409 118 27ft 13kts
01-Dec-17 09:43 37.624777 -122.380207 118 27ft 14kts
01-Dec-17 09:44 37.623100 -122.376236 117 27ft 5kts
01-Dec-17 09:45 37.622514 -122.374792 118 27ft 8kts
01-Dec-17 09:46 37.620954 -122.371098 118 27ft 7kts
01-Dec-17 09:47 37.619413 -122.367447 118 27ft 15kts
01-Dec-17 09:48 37.617453 -122.362769 117 27ft 13kts
01-Dec-17 09:49 37.615888 -122.359009 117 27ft 12kts
01-Dec-17 09:50 37.614826 -122.356817 152 27ft 0kts
01-Dec-17 09:51 37.613859 -122.357159 225 27ft 6kts
01-Dec-17 09:52 37.620941 -122.374907 298 42ft 165kts
01-Dec-17 09:53 37.654433 -122.405349 24 1869ft 178kts
01-Dec-17 09:54 37.681010 -122.350376 72 2687ft 214kts
01-Dec-17 09:55 37.699568 -122.276415 64 4366ft 228kts
01-Dec-17 09:56 37.743053 -122.219091 23 5843ft 252kts
01-Dec-17 09:57 37.812328 -122.194444 6 8011ft 265kts
01-Dec-17 09:58 37.886516 -122.184676 3 10000ft 288kts
01-Dec-17 09:59 37.969975 -122.172619 3 11813ft 326kts
01-Dec-17 10:00 38.063352 -122.157701 3 14058ft 357kts
01-Dec-17 10:01 38.139491 -122.145228 3 15746ft 381kts
01-Dec-17 10:02 38.260948 -122.125214 2 18234ft 413kts
01-Dec-17 10:03 38.376573 -122.111750 354 20500ft 427kts
01-Dec-17 10:04 38.476362 -122.118866 350 22358ft 436kts
01-Dec-17 10:05 38.618981 -122.131143 350 24780ft 452kts
01-Dec-17 10:06 38.724590 -122.138353 350 26484ft 461kts
01-Dec-17 10:07 38.871778 -122.147903 350 28608ft 474kts
01-Dec-17 10:08 38.981010 -122.155018 349 30254ft 479kts
01-Dec-17 10:09 39.110470 -122.163344 347 32695ft 467kts
01-Dec-17 10:10 39.236569 -122.171280 347 34704ft 455kts
01-Dec-17 10:11 39.361861 -122.179685 347 36042ft 451kts
01-Dec-17 10:12 39.486248 -122.188158 346 36680ft 458kts
01-Dec-17 10:13 39.613517 -122.196791 347 37337ft 462kts
01-Dec-17 10:14 39.741182 -122.205293 347 38017ft 461kts
01-Dec-17 10:15 39.867938 -122.213802 347 38201ft 459kts
01-Dec-17 10:16 39.994874 -122.222503 347 38195ft 460kts
01-Dec-17 10:17 40.117629 -122.230822 347 38197ft 459kts
01-Dec-17 10:18 40.242683 -122.239005 347 38196ft 460kts
01-Dec-17 10:19 40.369605 -122.247557 346 38191ft 460kts
01-Dec-17 10:20 40.496723 -122.256328 347 38186ft 459kts
01-Dec-17 10:21 40.623917 -122.265143 346 38185ft 459kts
01-Dec-17 10:22 40.751275 -122.274080 346 38185ft 460kts
01-Dec-17 10:23 40.878771 -122.283406 346 38186ft 459kts
01-Dec-17 10:24 41.005935 -122.292401 346 38185ft 461kts
01-Dec-17 10:25 41.129390 -122.301180 345 38186ft 468kts
01-Dec-17 10:26 41.258209 -122.309747 345 38227ft 468kts
01-Dec-17 10:27 41.386966 -122.318626 345 38240ft 468kts
01-Dec-17 10:28 41.516871 -122.327901 345 38241ft 468kts
01-Dec-17 10:29 41.646560 -122.337186 345 38241ft 468kts
01-Dec-17 10:30 41.775862 -122.346497 345 38241ft 468kts
01-Dec-17 10:31 41.905640 -122.355798 345 38240ft 468kts
01-Dec-17 10:32 42.034987 -122.365161 345 38238ft 467kts
01-Dec-17 10:33 42.161778 -122.374304 345 38237ft 468kts
01-Dec-17 10:34 42.290390 -122.383230 345 38237ft 468kts
01-Dec-17 10:35 42.419683 -122.392587 345 38236ft 468kts
01-Dec-17 10:36 42.549558 -122.402196 345 38241ft 468kts
01-Dec-17 10:37 42.679030 -122.411773 345 38240ft 467kts
01-Dec-17 10:38 42.808622 -122.421430 345 38240ft 468kts
01-Dec-17 10:39 42.938126 -122.431125 345 38239ft 472kts
01-Dec-17 10:40 43.070087 -122.441121 345 38238ft 480kts
01-Dec-17 10:41 43.196451 -122.450200 345 38232ft 479kts
01-Dec-17 10:42 43.293303 -122.457137 345 38223ft 480kts
01-Dec-17 10:43 43.428914 -122.467697 346 38219ft 500kts
01-Dec-17 10:44 43.567368 -122.477968 346 38205ft 500kts
01-Dec-17 10:45 43.705682 -122.488324 346 38191ft 502kts
01-Dec-17 10:46 43.844688 -122.498811 346 38192ft 502kts
01-Dec-17 10:47 43.983220 -122.509395 346 38191ft 502kts
01-Dec-17 10:48 44.116192 -122.519719 346 38193ft 503kts
01-Dec-17 10:49 44.244391 -122.529275 346 38188ft 503kts
01-Dec-17 10:50 44.380595 -122.539671 346 38188ft 502kts
01-Dec-17 10:51 44.519239 -122.550558 346 38181ft 502kts
01-Dec-17 10:52 44.655420 -122.561316 346 38180ft 502kts
01-Dec-17 10:53 44.790080 -122.571991 346 38187ft 502kts
01-Dec-17 10:54 44.928452 -122.582979 346 38194ft 502kts
01-Dec-17 10:55 45.067551 -122.594193 346 38200ft 507kts
01-Dec-17 10:56 45.192012 -122.604033 347 38194ft 510kts
01-Dec-17 10:57 45.323925 -122.614176 346 38196ft 512kts
01-Dec-17 10:58 45.461017 -122.624953 347 38193ft 511kts
01-Dec-17 10:59 45.600576 -122.636008 347 37160ft 514kts
01-Dec-17 11:00 45.740101 -122.647435 346 34871ft 506kts
01-Dec-17 11:01 45.873029 -122.659487 346 32834ft 511kts
01-Dec-17 11:02 46.014696 -122.671847 347 30703ft 517kts
01-Dec-17 11:03 46.134527 -122.684700 343 28902ft 516kts
01-Dec-17 11:04 46.266299 -122.718888 340 26905ft 517kts
01-Dec-17 11:05 46.402999 -122.756826 342 24857ft 524kts
01-Dec-17 11:06 46.545087 -122.792762 343 22754ft 529kts
01-Dec-17 11:07 46.687268 -122.828505 343 20628ft 504kts
01-Dec-17 11:08 46.817183 -122.861608 343 18675ft 452kts
01-Dec-17 11:09 46.931236 -122.890433 347 17011ft 412kts
01-Dec-17 11:10 47.031222 -122.841190 43 15566ft 404kts
01-Dec-17 11:11 47.105248 -122.730229 40 14307ft 385kts
01-Dec-17 11:12 47.174867 -122.642169 37 13297ft 348kts
01-Dec-17 11:13 47.243228 -122.555296 38 11854ft 340kts
01-Dec-17 11:14 47.312740 -122.467678 38 10344ft 321kts
01-Dec-17 11:15 47.375279 -122.387375 40 8912ft 307kts
01-Dec-17 11:16 47.436738 -122.320112 13 7510ft 292kts
01-Dec-17 11:17 47.499748 -122.333398 341 6618ft 264kts
01-Dec-17 11:18 47.569132 -122.365092 341 5645ft 265kts
01-Dec-17 11:19 47.636501 -122.397903 341 5006ft 230kts
01-Dec-17 11:20 47.672830 -122.460245 284 5006ft 208kts
01-Dec-17 11:21 47.711349 -122.514759 7 5011ft 220kts
01-Dec-17 11:22 47.737432 -122.452752 122 5007ft 190kts
01-Dec-17 11:23 47.690946 -122.430424 177 3856ft 185kts
01-Dec-17 11:24 47.649802 -122.404193 149 2508ft 152kts
01-Dec-17 11:25 47.612698 -122.372436 150 1578ft 152kts
01-Dec-17 11:26 47.576548 -122.341841 149 830ft 150kts
01-Dec-17 11:27 47.540811 -122.311616 150 64ft 147kts
01-Dec-17 11:28 47.524333 -122.297600 150 25ft 40kts
01-Dec-17 11:29 47.519441 -122.295130 328 25ft 15kts
01-Dec-17 11:30 47.522899 -122.297964 331 25ft 13kts
01-Dec-17 11:31 47.525890 -122.300471 330 25ft 11kts
01-Dec-17 11:32 47.528596 -122.302773 330 25ft 10kts

Navigation Log

Ident Type
Flight plan parsing failed, navigation log unavailable